Time;durP1;ratioP1;P1;durP2;ratioP2;P2;SDS_P1;SDS_P2;PMS_P1;PMS_P2;Temp;Humidity;BMP_temperature;BMP_pressure;BME280_temperature;BME280_humidity;BME280_pressure;Samples;Min_cycle;Max_cycle;Signal;HPM_P1;HPM_P2
2023/09/14 00:00:50;;;;;;;6.63;1.98;;;14.40;99.90;;;;;;4877722;29;20289;-64
2023/09/14 00:03:18;;;;;;;2.53;1.70;;;14.50;99.90;;;;;;4887817;29;20662;-61
2023/09/14 00:05:47;;;;;;;5.87;2.73;;;14.50;99.90;;;;;;4878925;29;20201;-61
2023/09/14 00:08:15;;;;;;;5.67;2.20;;;14.50;99.90;;;;;;4875347;29;20671;-61
2023/09/14 00:10:43;;;;;;;4.50;1.70;;;14.50;99.90;;;;;;4881042;29;20198;-64
2023/09/14 00:13:10;;;;;;;6.23;1.90;;;14.50;99.90;;;;;;4874540;29;20230;-65
2023/09/14 00:15:40;;;;;;;3.13;1.33;;;14.40;99.90;;;;;;4875466;29;20225;-64
2023/09/14 00:18:08;;;;;;;5.87;1.90;;;14.30;99.90;;;;;;4875433;29;20634;-64
2023/09/14 00:20:35;;;;;;;7.87;2.00;;;14.30;99.90;;;;;;4861755;29;21069;-64
2023/09/14 00:23:03;;;;;;;5.97;1.43;;;14.30;99.90;;;;;;4878205;29;20257;-65
2023/09/14 00:25:30;;;;;;;2.63;1.53;;;14.20;99.90;;;;;;4876915;29;20194;-67
2023/09/14 00:27:57;;;;;;;3.00;1.70;;;14.20;99.90;;;;;;4872816;29;20726;-64
2023/09/14 00:30:24;;;;;;;7.53;1.90;;;14.20;99.90;;;;;;4855175;29;20202;-64
2023/09/14 00:32:52;;;;;;;3.73;1.87;;;14.20;99.90;;;;;;4877499;29;20221;-64
2023/09/14 00:35:20;;;;;;;6.53;1.60;;;14.10;99.90;;;;;;4879050;29;20198;-66
2023/09/14 00:37:48;;;;;;;4.73;1.87;;;13.90;99.90;;;;;;4860672;29;20213;-63
2023/09/14 00:40:16;;;;;;;2.40;1.67;;;13.70;99.90;;;;;;4875830;29;20377;-64
2023/09/14 00:42:45;;;;;;;3.83;1.50;;;13.60;99.90;;;;;;4873898;29;20202;-63
2023/09/14 00:45:17;;;;;;;4.93;2.07;;;13.50;99.90;;;;;;4866508;29;20224;-67
2023/09/14 00:47:49;;;;;;;2.77;1.50;;;13.50;99.90;;;;;;4867179;29;20563;-64
2023/09/14 00:50:17;;;;;;;9.77;2.07;;;13.40;99.90;;;;;;4868092;29;20197;-64
2023/09/14 00:52:51;;;;;;;3.37;1.80;;;13.50;99.90;;;;;;4869797;29;20208;-65
2023/09/14 00:55:18;;;;;;;10.27;1.80;;;13.50;99.90;;;;;;4892954;29;20284;-64
2023/09/14 00:57:48;;;;;;;5.00;2.37;;;13.40;99.90;;;;;;4879332;29;20281;-63
2023/09/14 01:00:16;;;;;;;6.00;2.30;;;13.30;99.90;;;;;;4868802;29;20726;-62
2023/09/14 01:02:43;;;;;;;4.97;1.80;;;13.30;99.90;;;;;;4876777;29;20227;-62
2023/09/14 01:05:15;;;;;;;5.73;2.13;;;13.30;99.90;;;;;;4883672;29;20269;-61
2023/09/14 01:07:42;;;;;;;6.90;1.90;;;13.30;99.90;;;;;;4881385;29;20194;-64
2023/09/14 01:10:15;;;;;;;5.77;2.07;;;13.20;99.90;;;;;;4885717;29;20696;-64
2023/09/14 01:12:43;;;;;;;2.30;1.67;;;13.20;99.90;;;;;;4866011;29;20261;-63
2023/09/14 01:15:21;;;;;;;7.07;1.87;;;13.20;99.90;;;;;;4890799;29;20932;-64
2023/09/14 01:18:17;;;;;;;2.40;1.67;;;13.10;99.90;;;;;;4857287;29;20260;-64
2023/09/14 01:20:49;;;;;;;2.87;1.50;;;13.10;99.90;;;;;;4877207;29;20217;-65
2023/09/14 01:23:35;;;;;;;3.90;2.23;;;13.10;99.90;;;;;;4872512;29;20589;-64
2023/09/14 01:26:06;;;;;;;2.83;1.87;;;13.00;99.90;;;;;;4856610;29;20295;-64
2023/09/14 01:28:33;;;;;;;4.67;2.23;;;13.00;99.90;;;;;;4889354;29;20197;-64
2023/09/14 01:31:00;;;;;;;2.80;1.33;;;13.00;99.90;;;;;;4871328;29;20296;-70
2023/09/14 01:33:29;;;;;;;4.93;1.73;;;13.00;99.90;;;;;;4879472;29;20217;-64
2023/09/14 01:36:01;;;;;;;3.93;1.47;;;13.00;99.90;;;;;;4883056;29;20201;-63
2023/09/14 01:38:30;;;;;;;3.07;1.77;;;12.90;99.90;;;;;;4891606;29;20194;-63
2023/09/14 01:40:58;;;;;;;6.43;1.90;;;12.90;99.90;;;;;;4879930;29;20198;-64
2023/09/14 01:43:26;;;;;;;4.03;1.90;;;12.80;99.90;;;;;;4853564;29;20563;-60
2023/09/14 01:45:53;;;;;;;3.87;1.87;;;12.80;99.90;;;;;;4864084;29;20200;-60
2023/09/14 01:48:22;;;;;;;1.80;1.27;;;12.80;99.90;;;;;;4873458;29;20264;-60
2023/09/14 01:50:49;;;;;;;3.83;1.93;;;12.80;99.90;;;;;;4869367;29;20202;-61
2023/09/14 01:53:16;;;;;;;4.20;1.60;;;12.70;99.90;;;;;;4879277;29;20675;-61
2023/09/14 01:55:43;;;;;;;5.37;1.87;;;12.70;99.90;;;;;;4884999;29;20521;-69
2023/09/14 01:58:12;;;;;;;6.33;2.10;;;12.70;99.90;;;;;;4888566;29;20662;-61
2023/09/14 02:04:40;;;;;;;3.00;1.70;;;12.60;99.90;;;;;;4876179;29;20216;-65
2023/09/14 02:07:07;;;;;;;5.47;1.63;;;12.60;99.90;;;;;;4847921;29;20201;-65
2023/09/14 02:09:37;;;;;;;2.30;1.50;;;12.60;99.90;;;;;;4868150;29;20364;-64
2023/09/14 02:12:04;;;;;;;4.33;1.90;;;12.50;1.00;;;;;;4877615;29;20702;-64
2023/09/14 02:14:31;;;;;;;5.13;1.47;;;12.50;1.00;;;;;;4856058;29;20257;-65
2023/09/14 02:16:58;;;;;;;6.90;1.67;;;12.40;1.00;;;;;;4839954;29;20239;-65
2023/09/14 02:19:26;;;;;;;3.03;1.50;;;12.40;1.00;;;;;;4859057;29;20206;-66
2023/09/14 02:21:52;;;;;;;3.90;1.70;;;12.40;1.00;;;;;;4856922;29;20222;-70
2023/09/14 02:24:20;;;;;;;4.20;1.90;;;12.40;1.00;;;;;;4857123;29;20214;-61
2023/09/14 02:26:47;;;;;;;4.83;1.97;;;12.40;1.00;;;;;;4855659;29;20671;-61
2023/09/14 02:29:14;;;;;;;11.20;2.67;;;12.30;1.00;;;;;;4855005;29;20210;-62
2023/09/14 02:31:41;;;;;;;3.23;2.23;;;12.10;1.00;;;;;;4851217;29;20223;-62
2023/09/14 02:34:08;;;;;;;5.80;2.27;;;12.20;1.00;;;;;;4843904;29;20555;-61
2023/09/14 02:36:35;;;;;;;3.17;2.17;;;12.30;1.00;;;;;;4868607;29;20210;-68
2023/09/14 02:39:04;;;;;;;5.27;2.53;;;12.30;1.00;;;;;;4852651;29;20900;-61
2023/09/14 02:41:31;;;;;;;9.93;2.97;;;12.40;1.00;;;;;;4852710;29;20230;-61
2023/09/14 02:43:58;;;;;;;4.30;1.87;;;12.50;1.00;;;;;;4848768;29;20329;-63
2023/09/14 02:46:25;;;;;;;6.27;2.43;;;12.50;1.00;;;;;;4850078;29;20258;-61
2023/09/14 02:48:52;;;;;;;6.67;3.90;;;12.60;1.00;;;;;;4870696;29;20209;-61
2023/09/14 02:51:19;;;;;;;9.17;4.90;;;12.60;1.00;;;;;;4838193;29;20207;-62
2023/09/14 02:53:47;;;;;;;13.50;5.07;;;12.70;1.00;;;;;;4857965;29;20202;-68
2023/09/14 02:56:14;;;;;;;5.77;3.30;;;12.80;1.00;;;;;;4857051;29;20210;-66
2023/09/14 02:58:41;;;;;;;4.10;2.40;;;12.90;1.00;;;;;;4848763;29;20206;-65
2023/09/14 03:01:09;;;;;;;4.97;2.23;;;13.00;1.00;;;;;;4839100;29;20254;-65
2023/09/14 03:03:42;;;;;;;4.97;1.90;;;13.00;1.00;;;;;;4848994;29;20743;-65
2023/09/14 03:06:11;;;;;;;4.77;1.60;;;13.00;1.00;;;;;;4847249;29;20225;-64
2023/09/14 03:08:38;;;;;;;3.70;1.50;;;13.00;1.00;;;;;;4859193;29;20195;-68
2023/09/14 03:11:05;;;;;;;4.30;1.87;;;13.00;99.90;;;;;;4867887;29;20211;-70
2023/09/14 03:13:32;;;;;;;2.07;1.30;;;13.10;1.00;;;;;;4859582;29;20225;-67
2023/09/14 03:16:00;;;;;;;3.87;1.70;;;13.10;1.00;;;;;;4876664;29;20738;-67
2023/09/14 03:18:27;;;;;;;4.93;1.67;;;13.20;99.90;;;;;;4864455;29;20214;-67
2023/09/14 03:20:55;;;;;;;4.37;2.43;;;13.00;99.90;;;;;;4856998;29;20212;-68
2023/09/14 03:23:23;;;;;;;2.50;1.70;;;12.70;99.90;;;;;;4863316;29;20637;-68
2023/09/14 03:25:51;;;;;;;4.20;1.70;;;12.60;1.00;;;;;;4869281;29;20277;-67
2023/09/14 03:28:18;;;;;;;4.60;2.07;;;12.50;1.00;;;;;;4867928;29;20206;-67
2023/09/14 03:30:47;;;;;;;3.33;1.80;;;12.70;1.00;;;;;;4885436;29;20198;-68
2023/09/14 03:33:14;;;;;;;3.43;1.83;;;12.80;1.00;;;;;;4872709;29;20223;-61
2023/09/14 03:35:41;;;;;;;4.23;2.13;;;12.90;1.00;;;;;;4879430;29;20209;-62
2023/09/14 03:38:08;;;;;;;4.00;2.00;;;13.00;1.00;;;;;;4877905;29;20224;-61
2023/09/14 03:40:35;;;;;;;6.67;1.80;;;13.00;1.00;;;;;;4863073;29;20562;-63
2023/09/14 03:43:03;;;;;;;5.23;2.37;;;13.00;99.90;;;;;;4869618;29;20237;-61
2023/09/14 03:45:30;;;;;;;4.27;2.00;;;13.00;99.90;;;;;;4859787;29;20223;-64
2023/09/14 03:47:57;;;;;;;3.53;2.20;;;13.00;99.90;;;;;;4877349;29;20217;-61
2023/09/14 03:50:24;;;;;;;6.30;2.23;;;13.00;99.90;;;;;;4884150;29;20218;-61
2023/09/14 03:52:51;;;;;;;13.50;2.20;;;12.90;99.90;;;;;;4870463;29;20220;-62
2023/09/14 03:55:18;;;;;;;3.47;2.20;;;12.90;99.90;;;;;;4883140;29;20308;-62
2023/09/14 03:57:47;;;;;;;3.77;1.80;;;12.80;99.90;;;;;;4884833;29;20256;-61
2023/09/14 04:00:17;;;;;;;5.40;1.80;;;12.70;99.90;;;;;;4877888;29;20201;-62
2023/09/14 04:02:45;;;;;;;4.73;2.07;;;12.70;99.90;;;;;;4892213;29;20276;-68
2023/09/14 04:05:14;;;;;;;4.47;2.17;;;12.70;1.00;;;;;;4872048;29;20743;-66
2023/09/14 04:07:43;;;;;;;9.50;2.40;;;12.60;1.00;;;;;;4868764;29;20269;-66
2023/09/14 04:10:10;;;;;;;2.23;1.83;;;12.60;1.00;;;;;;4865190;29;20209;-65
2023/09/14 04:12:42;;;;;;;3.63;1.80;;;12.60;1.00;;;;;;4874784;29;20194;-62
2023/09/14 04:15:10;;;;;;;6.83;3.03;;;12.60;1.00;;;;;;4852212;29;20290;-65
2023/09/14 04:17:37;;;;;;;3.23;2.10;;;12.60;1.00;;;;;;4852363;29;20194;-65
2023/09/14 04:20:14;;;;;;;2.73;1.77;;;12.60;1.00;;;;;;4841768;29;20206;-65
2023/09/14 04:22:41;;;;;;;2.80;2.00;;;12.60;1.00;;;;;;4842253;29;20210;-64
2023/09/14 04:25:08;;;;;;;5.50;2.27;;;12.50;1.00;;;;;;4850547;29;20232;-69
2023/09/14 04:27:36;;;;;;;4.07;1.73;;;12.50;1.00;;;;;;4840943;29;20223;-65
2023/09/14 04:30:04;;;;;;;2.77;1.87;;;12.50;1.00;;;;;;4871249;29;20297;-64
2023/09/14 04:32:31;;;;;;;7.03;2.10;;;12.50;1.00;;;;;;4855100;29;20228;-67
2023/09/14 04:34:59;;;;;;;7.07;2.00;;;12.40;1.00;;;;;;4849652;29;20214;-66
2023/09/14 04:37:25;;;;;;;2.90;1.67;;;12.40;1.00;;;;;;4842095;29;20556;-65
2023/09/14 04:39:53;;;;;;;2.33;1.70;;;12.30;1.00;;;;;;4850246;29;20211;-65
2023/09/14 04:42:20;;;;;;;4.80;2.13;;;12.30;1.00;;;;;;4853914;29;20285;-62
2023/09/14 04:44:50;;;;;;;3.43;1.90;;;12.30;1.00;;;;;;4839830;29;20302;-62
2023/09/14 04:47:20;;;;;;;7.60;1.80;;;12.30;1.00;;;;;;4843411;29;20314;-61
2023/09/14 04:49:47;;;;;;;4.17;1.77;;;12.30;1.00;;;;;;4849525;29;20309;-61
2023/09/14 04:52:14;;;;;;;6.80;1.80;;;12.30;1.00;;;;;;4846634;29;20234;-61
2023/09/14 04:54:44;;;;;;;4.23;2.07;;;12.20;1.00;;;;;;4847138;29;20207;-62
2023/09/14 04:57:11;;;;;;;9.80;2.40;;;12.10;1.00;;;;;;4852187;29;20202;-65
2023/09/14 04:59:38;;;;;;;4.10;2.27;;;12.00;1.00;;;;;;4839458;29;20211;-65
2023/09/14 05:02:12;;;;;;;3.70;1.60;;;12.00;1.00;;;;;;4852073;29;20241;-62
2023/09/14 05:04:39;;;;;;;9.37;2.10;;;11.90;1.00;;;;;;4852522;29;20291;-61
2023/09/14 05:07:06;;;;;;;4.17;2.60;;;11.80;1.00;;;;;;4856705;29;20286;-66
2023/09/14 05:09:33;;;;;;;3.60;2.20;;;11.70;1.00;;;;;;4851747;29;20217;-62
2023/09/14 05:12:00;;;;;;;8.23;2.40;;;11.70;1.00;;;;;;4858689;29;20194;-60
2023/09/14 05:14:27;;;;;;;11.20;2.03;;;11.70;1.00;;;;;;4863297;29;20256;-62
2023/09/14 05:16:55;;;;;;;2.10;1.83;;;11.70;1.00;;;;;;4881957;29;20228;-68
2023/09/14 05:19:22;;;;;;;2.83;1.97;;;11.80;1.00;;;;;;4869717;29;20636;-59
2023/09/14 05:21:49;;;;;;;4.87;2.43;;;11.80;1.00;;;;;;4875561;29;20718;-63
2023/09/14 05:24:16;;;;;;;2.53;1.90;;;11.90;1.00;;;;;;4860070;29;20217;-62
2023/09/14 05:26:43;;;;;;;4.67;2.30;;;11.90;1.00;;;;;;4874536;29;20217;-62
2023/09/14 05:29:10;;;;;;;2.87;2.33;;;12.00;1.00;;;;;;4890023;29;20730;-62
2023/09/14 05:31:37;;;;;;;4.77;2.40;;;12.00;1.00;;;;;;4870389;29;20674;-61
2023/09/14 05:34:06;;;;;;;2.83;1.90;;;12.10;1.00;;;;;;4867344;29;20197;-60
2023/09/14 05:36:33;;;;;;;3.90;2.43;;;12.20;1.00;;;;;;4882941;29;20220;-60
2023/09/14 05:39:00;;;;;;;8.20;3.50;;;12.20;1.00;;;;;;4848908;29;20641;-63
2023/09/14 05:41:27;;;;;;;5.40;2.17;;;12.30;1.00;;;;;;4864997;29;20217;-61
2023/09/14 05:43:55;;;;;;;3.30;2.60;;;12.40;1.00;;;;;;4866545;29;20296;-68
2023/09/14 05:46:22;;;;;;;4.83;2.17;;;12.50;1.00;;;;;;4870199;29;20722;-62
2023/09/14 05:48:50;;;;;;;3.17;1.80;;;12.60;1.00;;;;;;4873978;29;20232;-62
2023/09/14 05:51:17;;;;;;;6.00;2.37;;;12.60;1.00;;;;;;4870896;29;20202;-62
2023/09/14 05:53:44;;;;;;;5.47;3.37;;;12.70;99.90;;;;;;4867780;29;20197;-66
2023/09/14 05:56:11;;;;;;;6.90;3.10;;;14.60;99.90;;;;;;4869029;29;20206;-66
2023/09/14 05:58:38;;;;;;;2.00;1.77;;;16.60;99.90;;;;;;4860092;29;20246;-63
2023/09/14 06:01:05;;;;;;;4.82;2.05;;;18.30;99.90;;;;;;4865045;29;20213;-63
2023/09/14 06:03:32;;;;;;;5.55;2.00;;;19.00;99.90;;;;;;4872674;29;20205;-61
2023/09/14 06:06:00;;;;;;;7.97;2.47;;;20.60;99.90;;;;;;4870797;29;20313;-61
2023/09/14 06:08:27;;;;;;;2.53;1.60;;;21.80;99.90;;;;;;4855902;29;20862;-62
2023/09/14 06:10:54;;;;;;;5.20;2.33;;;22.70;99.90;;;;;;4866562;29;20348;-63
2023/09/14 06:13:21;;;;;;;3.35;2.28;;;22.70;99.90;;;;;;4859284;29;20620;-64
2023/09/14 06:15:48;;;;;;;3.42;2.30;;;23.30;99.90;;;;;;4879039;29;20541;-66
2023/09/14 06:18:15;;;;;;;6.97;2.42;;;24.30;99.90;;;;;;4873984;29;20261;-66
2023/09/14 06:20:43;;;;;;;4.45;2.00;;;25.50;99.90;;;;;;4875297;29;20548;-67
2023/09/14 06:23:10;;;;;;;8.45;2.50;;;25.10;99.90;;;;;;4870487;29;20257;-62
2023/09/14 06:25:37;;;;;;;4.32;2.55;;;24.60;99.90;;;;;;4878652;29;20221;-63
2023/09/14 06:28:04;;;;;;;3.72;2.30;;;24.90;99.90;;;;;;4871243;29;20295;-62
2023/09/14 06:30:32;;;;;;;3.60;2.25;;;25.10;99.90;;;;;;4857370;29;20258;-63
2023/09/14 06:32:59;;;;;;;4.40;2.35;;;25.20;99.90;;;;;;4871778;29;20722;-62
2023/09/14 06:35:26;;;;;;;3.97;2.35;;;24.70;99.90;;;;;;4874843;29;20573;-70
2023/09/14 06:37:53;;;;;;;5.22;2.30;;;23.60;99.90;;;;;;4873725;29;20213;-62
2023/09/14 06:40:20;;;;;;;4.78;3.13;;;22.90;99.90;;;;;;4873529;29;20267;-62
2023/09/14 06:42:48;;;;;;;8.38;3.75;;;25.00;99.90;;;;;;4872522;29;20206;-62
2023/09/14 06:45:15;;;;;;;14.43;4.40;;;27.00;99.90;;;;;;4877643;29;20694;-62
2023/09/14 06:47:42;;;;;;;11.00;5.78;;;28.20;99.90;;;;;;4877376;29;20198;-64
2023/09/14 06:50:09;;;;;;;10.52;5.20;;;29.40;99.90;;;;;;4874527;29;20587;-64
2023/09/14 06:52:36;;;;;;;9.07;6.00;;;30.10;99.90;;;;;;4878257;29;20206;-62
2023/09/14 06:55:04;;;;;;;3.40;2.60;;;30.20;99.90;;;;;;4871696;29;20229;-64
2023/09/14 06:57:31;;;;;;;9.25;2.97;;;29.30;99.90;;;;;;4879312;29;20198;-63
2023/09/14 06:59:58;;;;;;;4.32;2.40;;;28.10;99.90;;;;;;4879600;29;20631;-61
2023/09/14 07:02:26;;;;;;;5.82;2.72;;;26.50;99.90;;;;;;4878930;29;20302;-69
2023/09/14 07:04:55;;;;;;;8.55;2.65;;;26.90;99.90;;;;;;4880183;29;20258;-67
2023/09/14 07:07:24;;;;;;;4.88;2.35;;;27.40;99.90;;;;;;4881894;29;20200;-69
2023/09/14 07:09:51;;;;;;;7.13;2.28;;;29.10;99.90;;;;;;4881519;29;20296;-68
2023/09/14 07:12:18;;;;;;;3.55;2.90;;;28.80;99.90;;;;;;4879557;29;20204;-69
2023/09/14 07:14:45;;;;;;;7.45;2.63;;;27.40;99.90;;;;;;4878135;29;20252;-66
2023/09/14 07:17:12;;;;;;;5.18;2.65;;;25.50;99.90;;;;;;4879383;29;20272;-66
2023/09/14 07:19:39;;;;;;;3.38;2.40;;;22.20;99.90;;;;;;4879289;29;20674;-67
2023/09/14 07:22:06;;;;;;;4.20;2.13;;;22.90;99.90;;;;;;4880314;29;20219;-66
2023/09/14 07:24:33;;;;;;;5.82;2.38;;;26.40;99.90;;;;;;4880446;29;20288;-67
2023/09/14 07:27:00;;;;;;;8.88;2.53;;;29.60;99.90;;;;;;4880143;29;20686;-67
2023/09/14 07:29:28;;;;;;;5.57;2.25;;;30.90;99.90;;;;;;4878773;29;20265;-67
2023/09/14 07:31:57;;;;;;;5.72;2.42;;;32.20;99.90;;;;;;4878860;29;20233;-67
2023/09/14 07:34:24;;;;;;;3.38;2.38;;;32.20;99.90;;;;;;4878341;29;20672;-67
2023/09/14 07:36:51;;;;;;;3.53;2.33;;;31.30;99.90;;;;;;4881743;29;20284;-67
2023/09/14 07:39:18;;;;;;;5.55;2.72;;;31.80;99.90;;;;;;4876100;29;20202;-67
2023/09/14 07:41:47;;;;;;;3.20;2.40;;;30.60;99.90;;;;;;4878933;29;20225;-67
2023/09/14 07:44:14;;;;;;;3.78;2.30;;;29.80;99.90;;;;;;4880575;29;20205;-67
2023/09/14 07:46:41;;;;;;;5.40;2.47;;;27.00;99.90;;;;;;4880554;29;20217;-66
2023/09/14 07:49:09;;;;;;;3.90;2.22;;;27.50;99.90;;;;;;4896986;29;20566;-67
2023/09/14 07:51:36;;;;;;;7.97;2.40;;;27.80;99.90;;;;;;4880255;29;20232;-67
2023/09/14 07:54:03;;;;;;;4.88;2.10;;;27.60;99.90;;;;;;4879899;29;20205;-67
2023/09/14 07:56:30;;;;;;;3.20;2.17;;;27.70;99.90;;;;;;4879719;29;20250;-67
2023/09/14 07:58:57;;;;;;;3.92;2.58;;;28.50;99.90;;;;;;4888257;29;20698;-67
2023/09/14 08:01:24;;;;;;;5.75;2.15;;;27.70;99.90;;;;;;4874937;29;20666;-67
2023/09/14 08:03:51;;;;;;;5.43;2.10;;;28.60;99.90;;;;;;4881762;29;20194;-67
2023/09/14 08:06:19;;;;;;;1.98;1.88;;;28.70;99.90;;;;;;4861051;29;20215;-67
2023/09/14 08:08:50;;;;;;;5.97;2.72;;;29.80;99.90;;;;;;4864390;29;20197;-66
2023/09/14 08:11:17;;;;;;;6.97;2.22;;;31.00;99.90;;;;;;4876396;29;20916;-67
2023/09/14 08:13:44;;;;;;;5.10;2.35;;;30.80;99.90;;;;;;4868350;29;20228;-62
2023/09/14 08:16:11;;;;;;;3.53;2.35;;;31.10;99.90;;;;;;4883622;29;20261;-62
2023/09/14 08:18:38;;;;;;;5.75;2.38;;;30.10;99.90;;;;;;4872966;29;20206;-62
2023/09/14 08:21:05;;;;;;;5.63;2.40;;;26.90;99.90;;;;;;4877316;29;20687;-63
2023/09/14 08:23:32;;;;;;;7.03;2.85;;;28.10;99.90;;;;;;4876667;29;20650;-62
2023/09/14 08:25:59;;;;;;;3.83;2.30;;;28.60;99.90;;;;;;4872308;29;20224;-62
2023/09/14 08:28:26;;;;;;;6.55;2.50;;;29.80;99.90;;;;;;4890566;29;20671;-62
2023/09/14 08:30:53;;;;;;;2.45;2.00;;;30.00;99.90;;;;;;4875307;29;20190;-62
2023/09/14 08:33:20;;;;;;;3.65;2.20;;;30.50;99.90;;;;;;4886812;29;20274;-62
2023/09/14 08:35:47;;;;;;;7.72;2.60;;;32.00;99.90;;;;;;4883442;29;20212;-62
2023/09/14 08:38:14;;;;;;;7.45;2.53;;;29.90;99.90;;;;;;4879862;29;20196;-63
2023/09/14 08:40:45;;;;;;;6.38;2.50;;;27.10;99.90;;;;;;4875048;29;20660;-62
2023/09/14 08:43:13;;;;;;;2.65;2.30;;;30.90;99.90;;;;;;4878383;29;20269;-63
2023/09/14 08:45:41;;;;;;;6.05;2.30;;;32.90;99.90;;;;;;4874471;29;20540;-64
2023/09/14 08:48:11;;;;;;;10.35;2.63;;;33.10;99.90;;;;;;4875527;29;20342;-62
2023/09/14 08:50:40;;;;;;;3.15;2.10;;;34.80;99.90;;;;;;4869928;29;20726;-65
2023/09/14 08:53:08;;;;;;;3.38;2.38;;;35.10;99.90;;;;;;4873332;29;20201;-67
2023/09/14 08:55:35;;;;;;;5.88;2.85;;;33.90;99.90;;;;;;4876987;29;20294;-66
2023/09/14 08:58:03;;;;;;;4.30;2.42;;;34.80;99.90;;;;;;4882310;29;20221;-65
2023/09/14 09:00:31;;;;;;;3.25;2.40;;;37.60;99.90;;;;;;4871801;29;20198;-64
2023/09/14 09:02:58;;;;;;;6.70;2.65;;;35.10;99.90;;;;;;4878763;29;20208;-66
2023/09/14 09:05:26;;;;;;;3.20;2.30;;;33.90;99.90;;;;;;4874687;29;20292;-67
2023/09/14 09:07:56;;;;;;;6.70;2.72;;;34.20;99.90;;;;;;4864544;29;20690;-65
2023/09/14 09:10:25;;;;;;;2.83;2.40;;;36.00;99.90;;;;;;4871568;29;20658;-65
2023/09/14 09:12:57;;;;;;;4.80;2.72;;;35.80;99.90;;;;;;4860741;29;20938;-64
2023/09/14 09:15:29;;;;;;;4.22;2.58;;;35.80;99.90;;;;;;4872208;29;20189;-65
2023/09/14 09:18:07;;;;;;;13.02;2.72;;;36.40;99.90;;;;;;4875018;29;20220;-65
2023/09/14 09:20:36;;;;;;;3.17;2.60;;;34.30;99.90;;;;;;4874619;29;20315;-68
2023/09/14 09:23:04;;;;;;;5.10;2.60;;;32.90;99.90;;;;;;4875092;29;20557;-63
2023/09/14 09:25:45;;;;;;;3.50;2.40;;;33.20;99.90;;;;;;4876350;29;20826;-62
2023/09/14 09:28:12;;;;;;;5.18;3.33;;;31.30;99.90;;;;;;4866594;29;20563;-62
2023/09/14 09:30:39;;;;;;;3.92;2.65;;;33.60;99.90;;;;;;4858488;29;20198;-61
2023/09/14 09:33:08;;;;;;;3.53;2.80;;;32.00;99.90;;;;;;4870671;29;20253;-62
2023/09/14 09:35:35;;;;;;;2.63;2.42;;;33.70;99.90;;;;;;4873283;29;20588;-61
2023/09/14 09:38:16;;;;;;;5.53;2.53;;;35.00;99.90;;;;;;4874548;29;20201;-61
2023/09/14 09:40:46;;;;;;;6.53;2.83;;;34.30;99.90;;;;;;4855799;29;20563;-61
2023/09/14 09:43:19;;;;;;;2.83;2.40;;;34.10;99.90;;;;;;4866673;29;20550;-61
2023/09/14 09:45:47;;;;;;;4.68;3.03;;;34.70;99.90;;;;;;4857311;29;20199;-62
2023/09/14 09:48:14;;;;;;;2.83;2.63;;;34.40;99.90;;;;;;4869558;29;20663;-61
2023/09/14 09:50:41;;;;;;;3.05;2.75;;;35.40;99.90;;;;;;4871261;29;20233;-62
2023/09/14 09:53:16;;;;;;;3.70;2.67;;;35.90;99.90;;;;;;4872225;29;20220;-65
2023/09/14 09:55:45;;;;;;;4.03;2.47;;;32.50;99.90;;;;;;4879731;29;20275;-65
2023/09/14 09:58:16;;;;;;;4.18;2.80;;;30.90;99.90;;;;;;4879026;29;20212;-67
2023/09/14 10:00:44;;;;;;;4.25;2.97;;;33.90;99.90;;;;;;4875438;29;20205;-64
2023/09/14 10:03:16;;;;;;;6.00;2.60;;;33.00;99.90;;;;;;4872000;29;20197;-64
2023/09/14 10:05:44;;;;;;;5.85;2.85;;;32.70;99.90;;;;;;4870417;29;20250;-64
2023/09/14 10:08:21;;;;;;;3.92;2.97;;;31.80;99.90;;;;;;4872344;29;20201;-66
2023/09/14 10:10:52;;;;;;;4.40;2.58;;;30.50;99.90;;;;;;4863553;29;20527;-66
2023/09/14 10:13:20;;;;;;;2.85;2.65;;;29.50;99.90;;;;;;4867215;29;20378;-67
2023/09/14 10:15:54;;;;;;;3.47;2.70;;;29.10;99.90;;;;;;4865774;29;20202;-65
2023/09/14 10:18:22;;;;;;;3.83;2.60;;;29.40;99.90;;;;;;4874623;29;20197;-67
2023/09/14 10:20:55;;;;;;;4.22;2.40;;;30.80;99.90;;;;;;4870277;29;20621;-65
2023/09/14 10:23:22;;;;;;;4.07;2.70;;;28.20;99.90;;;;;;4867243;29;20539;-65
2023/09/14 10:25:51;;;;;;;5.00;2.80;;;29.10;99.90;;;;;;4877810;29;20220;-66
2023/09/14 10:28:21;;;;;;;2.85;2.38;;;30.70;99.90;;;;;;4868625;29;20197;-66
2023/09/14 10:30:50;;;;;;;3.70;2.30;;;32.50;99.90;;;;;;4865431;29;20566;-68
2023/09/14 10:33:18;;;;;;;2.90;2.60;;;32.00;99.90;;;;;;4871595;29;20217;-62
2023/09/14 10:35:47;;;;;;;3.88;2.70;;;31.20;99.90;;;;;;4889229;29;20677;-61
2023/09/14 10:38:16;;;;;;;5.90;2.90;;;30.40;99.90;;;;;;4867278;29;20725;-62
2023/09/14 10:40:46;;;;;;;3.45;2.83;;;30.90;99.90;;;;;;4865730;29;20667;-62
2023/09/14 10:43:13;;;;;;;6.22;3.40;;;28.60;99.90;;;;;;4872902;29;20197;-63
2023/09/14 10:45:43;;;;;;;3.10;2.50;;;29.20;99.90;;;;;;4869915;29;20194;-62
2023/09/14 10:48:15;;;;;;;3.92;2.38;;;28.20;99.90;;;;;;4871879;29;20702;-62
2023/09/14 10:50:42;;;;;;;5.55;2.40;;;29.80;99.90;;;;;;4873270;29;20202;-62
2023/09/14 10:53:09;;;;;;;3.92;2.72;;;26.00;99.90;;;;;;4878407;29;20541;-62
2023/09/14 10:55:38;;;;;;;3.65;2.72;;;28.10;99.90;;;;;;4875391;29;20185;-61
2023/09/14 10:58:05;;;;;;;5.00;2.92;;;27.30;99.90;;;;;;4860344;29;20205;-61
2023/09/14 11:00:38;;;;;;;3.00;2.75;;;28.00;99.90;;;;;;4869214;29;20193;-61
2023/09/14 11:03:09;;;;;;;3.72;2.85;;;28.40;99.90;;;;;;4861644;29;20309;-64
2023/09/14 11:05:52;;;;;;;6.93;3.08;;;29.10;99.90;;;;;;4872554;29;20201;-63
2023/09/14 11:08:21;;;;;;;2.50;2.30;;;31.20;99.90;;;;;;4863362;29;20249;-63
2023/09/14 11:10:58;;;;;;;5.05;2.60;;;28.70;99.90;;;;;;4872019;29;20666;-62
2023/09/14 11:13:30;;;;;;;3.08;2.45;;;29.30;99.90;;;;;;4881310;29;20243;-62
2023/09/14 11:16:25;;;;;;;2.72;2.40;;;31.30;99.90;;;;;;4871390;29;20224;-60
2023/09/14 11:18:56;;;;;;;6.05;2.95;;;32.40;99.90;;;;;;4870583;29;20650;-60
2023/09/14 11:21:31;;;;;;;3.90;2.70;;;30.30;99.90;;;;;;4872075;29;20197;-61
2023/09/14 11:24:05;;;;;;;5.00;2.83;;;31.20;99.90;;;;;;4870096;29;20308;-61
2023/09/14 11:26:42;;;;;;;2.83;2.53;;;31.40;99.90;;;;;;4873311;29;20281;-61
2023/09/14 11:29:12;;;;;;;2.65;2.45;;;30.50;99.90;;;;;;4868963;29;20201;-62
2023/09/14 11:31:40;;;;;;;5.47;2.95;;;30.60;99.90;;;;;;4868723;29;20651;-61
2023/09/14 11:34:29;;;;;;;3.92;2.67;;;31.80;99.90;;;;;;4871197;29;20647;-63
2023/09/14 11:37:01;;;;;;;3.67;2.78;;;31.60;99.90;;;;;;4869454;29;20263;-60
2023/09/14 11:39:34;;;;;;;2.65;2.45;;;31.40;99.90;;;;;;4873551;29;20357;-61
2023/09/14 11:42:04;;;;;;;2.60;2.40;;;31.70;99.90;;;;;;4872022;29;20202;-60
2023/09/14 11:44:50;;;;;;;4.40;2.90;;;32.10;99.90;;;;;;4875372;29;20200;-65
2023/09/14 11:47:23;;;;;;;3.90;2.60;;;32.10;99.90;;;;;;4884268;29;20241;-67
2023/09/14 11:49:59;;;;;;;7.47;3.10;;;31.90;99.90;;;;;;4867279;29;20277;-64
2023/09/14 11:52:31;;;;;;;4.78;2.60;;;31.10;99.90;;;;;;4863062;29;20280;-67
2023/09/14 11:54:58;;;;;;;4.13;2.58;;;30.90;99.90;;;;;;4889798;29;20556;-65
2023/09/14 11:57:29;;;;;;;5.07;3.85;;;29.80;99.90;;;;;;4878844;29;20532;-64
2023/09/14 11:59:56;;;;;;;3.25;2.60;;;29.70;99.90;;;;;;4873901;29;20265;-66
2023/09/14 12:02:25;;;;;;;2.78;2.58;;;28.90;99.90;;;;;;4874985;29;20201;-67
2023/09/14 12:04:53;;;;;;;3.70;2.80;;;25.90;99.90;;;;;;4872666;29;20206;-66
2023/09/14 12:07:21;;;;;;;3.67;2.72;;;27.10;99.90;;;;;;4867467;29;20635;-67
2023/09/14 12:09:49;;;;;;;2.97;2.67;;;29.00;99.90;;;;;;4880288;29;20272;-68
2023/09/14 12:12:30;;;;;;;4.50;2.72;;;30.40;99.90;;;;;;4870922;29;20693;-66
2023/09/14 12:14:57;;;;;;;3.35;3.00;;;30.80;99.90;;;;;;4883504;29;20234;-67
2023/09/14 12:17:27;;;;;;;3.05;2.80;;;30.10;99.90;;;;;;4879156;29;20205;-68
2023/09/14 12:19:59;;;;;;;2.63;2.42;;;29.30;99.90;;;;;;4873819;29;20280;-68
2023/09/14 12:22:31;;;;;;;4.03;2.53;;;29.80;99.90;;;;;;4875336;29;20198;-67
2023/09/14 12:24:59;;;;;;;3.95;2.83;;;30.90;99.90;;;;;;4868225;29;20615;-67
2023/09/14 12:27:28;;;;;;;3.08;2.75;;;28.70;99.90;;;;;;4876086;29;20218;-65
2023/09/14 12:29:56;;;;;;;2.70;2.50;;;29.70;99.90;;;;;;4874743;29;20642;-65
2023/09/14 12:32:25;;;;;;;3.15;2.63;;;28.80;99.90;;;;;;4873326;29;20217;-67
2023/09/14 12:34:52;;;;;;;4.95;2.95;;;28.20;99.90;;;;;;4875715;29;20257;-66
2023/09/14 12:37:20;;;;;;;3.88;2.88;;;25.70;99.90;;;;;;4875754;29;20225;-65
2023/09/14 12:39:51;;;;;;;3.75;3.05;;;24.80;99.90;;;;;;4871430;29;20665;-65
2023/09/14 12:42:21;;;;;;;5.65;3.30;;;24.00;99.90;;;;;;4882099;29;20837;-66
2023/09/14 12:44:49;;;;;;;5.80;2.90;;;25.60;99.90;;;;;;4871132;29;20537;-66
2023/09/14 12:47:16;;;;;;;3.03;2.40;;;24.20;99.90;;;;;;4876971;29;20351;-66
2023/09/14 12:49:43;;;;;;;6.22;2.75;;;23.10;99.90;;;;;;4875536;29;20198;-65
2023/09/14 12:52:11;;;;;;;3.33;2.60;;;23.30;99.90;;;;;;4875950;29;20202;-67
2023/09/14 12:54:42;;;;;;;3.67;2.70;;;23.30;99.90;;;;;;4868498;29;20779;-63
2023/09/14 12:57:16;;;;;;;5.57;2.90;;;22.90;99.90;;;;;;4869590;29;20209;-61
2023/09/14 13:00:11;;;;;;;3.88;2.97;;;22.60;99.90;;;;;;4871744;29;20194;-61